KNEW/NEW METAR and TAF weather

Enter ICAO airport designator
Station Type Date Time Source
KNEW METAR 2019/02/22 22:16 UTC NOAA

KNEW 222216Z 18013KT 10SM SCT025 BKN034 OVC046 26/21 A2999 RMK AO2 T02610211


Station Type Date Time Source
KNEW Decoded METAR 2019/02/22 22:16 UTC NOAA

NEW ORLEANS LAKEFRONT AIRPORT , LA, United States (KNEW) 30-03N 90-02W 3M
Feb 22, 2019 - 05:16 PM EST / 2019.02.22 2216 UTC
Wind: from the S (180 degrees) at 15 MPH (13 KT):0
Visibility: 10 mile(s):0
Sky conditions: overcast
Temperature: 79.0 F (26.1 C)
Dew Point: 70.0 F (21.1 C)
Relative Humidity: 73%
Pressure (altimeter): 29.99 in. Hg (1015 hPa)
ob: KNEW 222216Z 18013KT 10SM SCT025 BKN034 OVC046 26/21 A2999 RMK AO2 T02610211
cycle: 22

Station Type Date Time Source
KNEW TAF 2019/02/22 18:30 UTC NOAA

TAF KNEW 221727Z 2218/2318 13010KT P6SM VCSH SCT020 BKN027
FM230000 14008KT P6SM BKN030
FM230300 15007KT 5SM BR OVC013
FM231500 17010KT 6SM BR OVC008
FM231700 18012G20KT 5SM BR OVC013


Example: see airport list